Hovedside
METAR-TAF:

METAR-TAF

Lufthavner :

Kuwait, Kuwait

breddegrad: 29-13N, lengdegrad: 047-59E, høyde over havet: 55 m

Gjeldene værobservasjon

Denne rapporten ble laget for 36 minutter siden, klokken 15:00 UTC
Vind 5 kt fra Øst-sørøst
Temperatur 38°C
Luftfuktighet 33%
Trykk 1004 hPa
Sikt: 6000 m
Skyfri himmel

METAR: OKBK 201500Z 12005KT 6000 SKC 38/19 Q1004 NOSIG

Tid: 18:36 (15:36 UTC)

Varsel

Denne rapporten ble laget for 4 timer og 51 minutter siden, klokken 10:45 UTC
Varsel gyldig fra 20. klokken 12 UTC til 21. klokken 18 UTC
Vind 10 kt fra Nord-nordvest
Sikt: 6000 m
Midlertidig
fra 20. klokken 12 UTC til 20. klokken 21 UTC
Vind 3 kt fra skiftende retning

TAF: OKBK 201045Z 2012/2118 34010KT 6000 NSC TEMPO 2012/2021 VRB03KT

Værobservasjoner og værvarsel for over 4000 flyplasser (METAR- og TAF-rapporter).

Tilgjengelige stasjoner er representert av de røde og gule prikkene på kartet.

Hold musepekeren over prikken for å se navnet på stasjonen.

Klikk så for å se værobservasjoner og -varsler.

For å forandre kartet kan du klikke på den grønne knappen med svart kryss for å zoome inn, på den grønne knappen med strek for å zoome ut, eller på de grønne pilene for å se tilstøtende kart.


METAR-TAF: